createdAt,value
2022-11-14T00:00:31.540Z,2.90
2022-11-14T00:03:04.317Z,4.20
2022-11-14T00:05:31.212Z,4.67
2022-11-14T00:07:58.042Z,4.30
2022-11-14T00:10:25.006Z,3.90
2022-11-14T00:12:51.786Z,3.73
2022-11-14T00:15:18.541Z,3.50
2022-11-14T00:17:45.184Z,3.70
2022-11-14T00:20:12.801Z,3.40
2022-11-14T00:22:39.484Z,7.00
2022-11-14T00:25:06.483Z,3.37
2022-11-14T00:27:33.133Z,4.20
2022-11-14T00:29:59.858Z,7.50
2022-11-14T00:32:26.557Z,4.40
2022-11-14T00:34:53.476Z,4.43
2022-11-14T00:37:20.171Z,4.53
2022-11-14T00:39:46.866Z,4.63
2022-11-14T00:42:13.613Z,4.80
2022-11-14T00:44:40.605Z,6.43
2022-11-14T00:47:07.306Z,4.20
2022-11-14T00:49:34.060Z,4.20
2022-11-14T00:52:00.847Z,4.23
2022-11-14T00:54:27.674Z,4.90
2022-11-14T00:56:54.488Z,4.60
2022-11-14T00:59:21.250Z,4.40
2022-11-14T01:01:48.027Z,4.27
2022-11-14T01:04:14.739Z,4.50
2022-11-14T01:06:41.426Z,4.63
2022-11-14T01:09:08.405Z,4.30
2022-11-14T01:11:35.279Z,4.67
2022-11-14T01:14:02.026Z,3.70
2022-11-14T01:16:28.694Z,4.17
2022-11-14T01:18:55.412Z,9.30
2022-11-14T01:21:22.080Z,4.53
2022-11-14T01:23:48.795Z,8.53
2022-11-14T01:26:15.683Z,4.60
2022-11-14T01:28:42.412Z,4.30
2022-11-14T01:31:23.806Z,4.63
2022-11-14T01:33:52.514Z,4.40
2022-11-14T01:36:19.743Z,4.33
2022-11-14T01:38:46.632Z,4.50
2022-11-14T01:41:15.947Z,4.17
2022-11-14T01:43:42.977Z,4.27
2022-11-14T01:46:15.820Z,4.40
2022-11-14T01:48:56.320Z,4.60
2022-11-14T01:51:41.822Z,5.00
2022-11-14T01:54:29.783Z,4.93
2022-11-14T01:56:59.659Z,5.57
2022-11-14T01:59:32.818Z,4.93
2022-11-14T02:02:06.389Z,4.43
2022-11-14T02:04:36.453Z,4.23
2022-11-14T02:07:05.331Z,4.03
2022-11-14T02:09:36.149Z,4.60
2022-11-14T02:12:06.086Z,4.33
2022-11-14T02:14:34.399Z,4.87
2022-11-14T02:17:27.871Z,3.67
2022-11-14T02:19:54.505Z,4.70
2022-11-14T02:22:21.646Z,4.67
2022-11-14T02:24:48.386Z,4.33
2022-11-14T02:27:16.355Z,4.27
2022-11-14T02:29:43.459Z,4.20
2022-11-14T02:32:10.996Z,5.13
2022-11-14T02:34:38.622Z,4.70
2022-11-14T02:37:06.153Z,4.87
2022-11-14T02:39:32.823Z,4.13
2022-11-14T02:41:59.727Z,4.70
2022-11-14T02:44:26.492Z,4.33
2022-11-14T02:46:53.171Z,3.93
2022-11-14T02:49:20.358Z,3.87
2022-11-14T02:51:47.085Z,4.40
2022-11-14T02:54:13.768Z,5.33
2022-11-14T02:56:40.491Z,4.30
2022-11-14T02:59:07.167Z,4.50
2022-11-14T03:01:33.907Z,4.00
2022-11-14T03:04:00.633Z,4.10
2022-11-14T03:06:27.312Z,4.37
2022-11-14T03:08:54.150Z,3.90
2022-11-14T03:11:20.921Z,4.37
2022-11-14T03:13:47.580Z,4.43
2022-11-14T03:16:14.584Z,5.10
2022-11-14T03:18:41.529Z,4.07
2022-11-14T03:21:10.442Z,4.10
2022-11-14T03:23:37.851Z,4.50
2022-11-14T03:26:07.325Z,7.27
2022-11-14T03:28:34.445Z,4.43
2022-11-14T03:31:01.126Z,5.17
2022-11-14T03:33:28.065Z,4.33
2022-11-14T03:35:55.204Z,5.23
2022-11-14T03:38:23.146Z,4.27
2022-11-14T03:40:51.090Z,4.50
2022-11-14T03:43:19.445Z,4.37
2022-11-14T03:45:47.049Z,4.90
2022-11-14T03:48:14.170Z,4.53
2022-11-14T03:50:42.146Z,4.23
2022-11-14T03:53:08.952Z,4.87
2022-11-14T03:55:35.787Z,5.83
2022-11-14T03:58:02.481Z,4.83
2022-11-14T04:00:29.520Z,3.73
2022-11-14T04:02:57.414Z,4.20
2022-11-14T04:05:24.387Z,4.20
2022-11-14T04:07:51.513Z,4.23
2022-11-14T04:10:18.592Z,3.73
2022-11-14T04:12:53.562Z,4.83
2022-11-14T04:15:21.003Z,4.17
2022-11-14T04:17:47.730Z,4.40
2022-11-14T04:20:15.283Z,4.43
2022-11-14T04:22:42.204Z,4.60
2022-11-14T04:25:09.885Z,4.97
2022-11-14T04:27:36.603Z,6.63
2022-11-14T04:30:04.726Z,5.00
2022-11-14T04:32:31.609Z,4.77
2022-11-14T04:34:58.315Z,5.23
2022-11-14T04:37:25.081Z,6.13
2022-11-14T04:39:51.821Z,7.13
2022-11-14T04:42:18.588Z,4.80
2022-11-14T04:44:45.266Z,5.23
2022-11-14T04:47:12.217Z,4.77
2022-11-14T04:49:39.171Z,5.17
2022-11-14T04:52:06.405Z,6.30
2022-11-14T04:54:33.649Z,4.67
2022-11-14T04:57:00.576Z,4.73
2022-11-14T04:59:27.294Z,4.10
2022-11-14T05:01:54.109Z,5.83
2022-11-14T05:04:20.886Z,4.77
2022-11-14T05:06:47.658Z,4.70
2022-11-14T05:09:14.433Z,4.40
2022-11-14T05:11:41.122Z,4.30
2022-11-14T05:14:07.847Z,4.80
2022-11-14T05:16:34.536Z,4.47
2022-11-14T05:19:01.290Z,4.40
2022-11-14T05:21:27.973Z,6.40
2022-11-14T05:23:54.658Z,4.30
2022-11-14T05:26:21.491Z,4.67
2022-11-14T05:28:48.250Z,4.70
2022-11-14T05:31:18.036Z,4.03
2022-11-14T05:33:45.793Z,5.13
2022-11-14T05:36:14.959Z,4.00
2022-11-14T05:38:42.211Z,4.50
2022-11-14T05:41:22.000Z,7.40
2022-11-14T05:43:48.753Z,4.93
2022-11-14T05:46:16.502Z,4.73
2022-11-14T05:48:43.563Z,4.60
2022-11-14T05:51:12.295Z,5.17
2022-11-14T05:53:39.808Z,7.37
2022-11-14T05:56:10.110Z,4.97
2022-11-14T05:58:36.929Z,5.00
2022-11-14T06:01:09.726Z,5.27
2022-11-14T06:03:39.600Z,5.10
2022-11-14T06:06:07.831Z,5.50
2022-11-14T06:08:35.149Z,5.97
2022-11-14T06:11:04.363Z,7.07
2022-11-14T06:13:31.897Z,5.77
2022-11-14T06:16:06.819Z,6.50
2022-11-14T06:18:34.121Z,5.03
2022-11-14T06:21:01.845Z,6.23
2022-11-14T06:23:28.763Z,5.87
2022-11-14T06:26:02.721Z,5.87
2022-11-14T06:28:30.312Z,6.00
2022-11-14T06:30:59.169Z,5.97
2022-11-14T06:33:26.948Z,6.50
2022-11-14T06:36:05.509Z,6.93
2022-11-14T06:38:34.128Z,14.77
2022-11-14T06:41:07.356Z,8.17
2022-11-14T06:43:38.136Z,9.93
2022-11-14T06:46:05.964Z,12.60
2022-11-14T06:48:33.156Z,6.03
2022-11-14T06:51:01.797Z,7.10
2022-11-14T06:53:30.573Z,9.33
2022-11-14T06:56:04.253Z,6.80
2022-11-14T06:58:33.599Z,8.80
2022-11-14T07:01:08.672Z,8.90
2022-11-14T07:03:35.493Z,8.60
2022-11-14T07:06:02.720Z,12.73
2022-11-14T07:08:30.517Z,8.77
2022-11-14T07:11:07.825Z,8.67
2022-11-14T07:13:35.610Z,11.47
2022-11-14T07:16:03.733Z,10.90
2022-11-14T07:18:32.097Z,17.47
2022-11-14T07:21:04.979Z,11.90
2022-11-14T07:23:35.616Z,12.53
2022-11-14T07:26:04.551Z,8.97
2022-11-14T07:28:32.309Z,9.20
2022-11-14T07:30:59.233Z,8.50
2022-11-14T07:33:25.971Z,8.70
2022-11-14T07:35:52.631Z,9.20
2022-11-14T07:38:19.305Z,8.17
2022-11-14T07:40:59.528Z,9.33
2022-11-14T07:43:27.643Z,10.10
2022-11-14T07:45:54.641Z,11.47
2022-11-14T07:48:22.760Z,9.73
2022-11-14T07:50:49.533Z,13.93
2022-11-14T07:53:17.788Z,10.07
2022-11-14T07:55:44.774Z,7.87
2022-11-14T07:58:11.619Z,9.80
2022-11-14T08:00:38.449Z,10.50
2022-11-14T08:03:08.177Z,10.53
2022-11-14T08:05:35.727Z,14.70
2022-11-14T08:08:02.675Z,14.33
2022-11-14T08:10:33.455Z,14.70
2022-11-14T08:13:30.142Z,10.93
2022-11-14T08:15:51.952Z,9.53
2022-11-14T08:18:19.026Z,11.47
2022-11-14T08:20:45.903Z,11.27
2022-11-14T08:23:13.705Z,11.17
2022-11-14T08:25:41.726Z,10.50
2022-11-14T08:28:09.262Z,12.40
2022-11-14T08:30:36.164Z,19.73
2022-11-14T08:33:05.008Z,12.90
2022-11-14T08:35:33.514Z,11.10
2022-11-14T08:38:03.132Z,13.33
2022-11-14T08:40:30.432Z,13.03
2022-11-14T08:43:02.097Z,15.17
2022-11-14T08:45:29.739Z,17.80
2022-11-14T08:47:56.929Z,19.40
2022-11-14T08:50:23.993Z,17.67
2022-11-14T08:52:52.072Z,20.17
2022-11-14T08:55:20.588Z,13.97
2022-11-14T08:57:49.716Z,16.63
2022-11-14T09:00:17.506Z,16.10
2022-11-14T09:02:44.692Z,19.43
2022-11-14T09:05:11.628Z,17.27
2022-11-14T09:07:38.574Z,17.07
2022-11-14T09:10:06.301Z,15.23
2022-11-14T09:12:33.427Z,15.30
2022-11-14T09:15:00.302Z,15.30
2022-11-14T09:17:27.107Z,17.13
2022-11-14T09:19:54.226Z,16.80
2022-11-14T09:22:21.140Z,14.13
2022-11-14T09:24:49.528Z,18.13
2022-11-14T09:27:17.209Z,19.20
2022-11-14T09:29:44.489Z,22.93
2022-11-14T09:32:11.261Z,18.83
2022-11-14T09:34:42.895Z,19.90
2022-11-14T09:37:09.810Z,21.20
2022-11-14T09:39:40.542Z,19.13
2022-11-14T09:42:17.546Z,19.90
2022-11-14T09:44:58.597Z,21.47
2022-11-14T09:47:30.818Z,27.23
2022-11-14T09:50:07.932Z,22.03
2022-11-14T09:52:46.412Z,21.47
2022-11-14T09:55:19.423Z,19.30
2022-11-14T09:57:46.830Z,25.03
2022-11-14T10:00:21.394Z,24.03
2022-11-14T10:03:21.227Z,21.93
2022-11-14T10:06:09.339Z,26.47
2022-11-14T10:08:45.065Z,21.70
2022-11-14T10:11:33.313Z,22.20
2022-11-14T10:14:18.824Z,24.27
2022-11-14T10:16:45.570Z,28.30
2022-11-14T10:19:38.736Z,22.30
2022-11-14T10:22:56.126Z,24.03
2022-11-14T10:25:43.851Z,25.57
2022-11-14T10:28:24.408Z,24.30
2022-11-14T10:31:01.512Z,26.50
2022-11-14T10:33:57.698Z,23.93
2022-11-14T10:36:56.734Z,24.10
2022-11-14T10:39:35.086Z,25.50
2022-11-14T10:42:08.482Z,24.17
2022-11-14T10:44:45.021Z,21.40
2022-11-14T10:47:16.160Z,20.43
2022-11-14T10:49:46.776Z,19.53
2022-11-14T10:52:18.059Z,21.40
2022-11-14T10:55:00.371Z,22.70
2022-11-14T10:57:29.172Z,19.00
2022-11-14T10:59:56.062Z,21.80
2022-11-14T11:02:23.461Z,17.73
2022-11-14T11:04:50.231Z,20.97
2022-11-14T11:07:42.057Z,19.70
2022-11-14T11:10:40.246Z,20.30
2022-11-14T11:13:09.987Z,23.23
2022-11-14T11:15:41.427Z,19.77
2022-11-14T11:18:29.913Z,17.77
2022-11-14T11:21:07.866Z,20.47
2022-11-14T11:23:35.818Z,21.57
2022-11-14T11:26:18.445Z,15.97
2022-11-14T11:29:05.420Z,22.60
2022-11-14T11:32:05.122Z,21.60
2022-11-14T11:34:33.379Z,22.77
2022-11-14T11:37:19.191Z,23.67
2022-11-14T11:39:50.993Z,23.90
2022-11-14T11:43:31.718Z,23.33
2022-11-14T11:45:28.518Z,24.50
2022-11-14T11:48:05.544Z,21.60
2022-11-14T11:50:32.295Z,21.27
2022-11-14T11:53:18.242Z,22.03
2022-11-14T11:55:52.448Z,20.03
2022-11-14T11:58:43.353Z,20.30
2022-11-14T12:01:12.211Z,23.27
2022-11-14T12:03:39.624Z,23.57
2022-11-14T12:06:24.840Z,19.77
2022-11-14T12:09:15.862Z,20.77
2022-11-14T12:11:48.432Z,22.17
2022-11-14T12:14:51.660Z,29.87
2022-11-14T12:17:43.188Z,22.50
2022-11-14T12:20:34.913Z,24.03
2022-11-14T12:23:32.878Z,20.67
2022-11-14T12:26:22.765Z,26.23
2022-11-14T12:29:04.756Z,22.27
2022-11-14T12:31:36.003Z,19.93
2022-11-14T12:34:15.681Z,28.23
2022-11-14T12:36:45.915Z,25.47
2022-11-14T12:39:30.038Z,21.93
2022-11-14T12:42:09.753Z,21.30
2022-11-14T12:44:39.677Z,25.47
2022-11-14T12:47:06.591Z,24.90
2022-11-14T12:49:39.420Z,24.20
2022-11-14T12:52:41.300Z,25.90
2022-11-14T12:55:25.924Z,22.37
2022-11-14T12:58:12.115Z,24.27
2022-11-14T13:01:07.322Z,24.43
2022-11-14T13:03:57.777Z,51.63
2022-11-14T13:06:45.391Z,35.77
2022-11-14T13:09:31.863Z,25.83
2022-11-14T13:12:17.098Z,22.13
2022-11-14T13:15:14.461Z,26.87
2022-11-14T13:18:00.116Z,27.23
2022-11-14T13:20:55.083Z,28.20
2022-11-14T13:23:27.905Z,21.80
2022-11-14T13:26:10.521Z,23.00
2022-11-14T13:28:53.221Z,31.20
2022-11-14T13:31:36.992Z,20.53
2022-11-14T13:34:36.763Z,24.20
2022-11-14T13:37:31.758Z,20.70
2022-11-14T13:40:17.319Z,19.77
2022-11-14T13:42:56.356Z,17.70
2022-11-14T13:45:25.995Z,19.30
2022-11-14T13:48:13.574Z,26.00
2022-11-14T13:50:43.110Z,26.77
2022-11-14T13:53:19.952Z,21.93
2022-11-14T13:56:13.086Z,24.80
2022-11-14T13:59:14.287Z,32.00
2022-11-14T14:02:03.575Z,31.43
2022-11-14T14:04:43.991Z,21.10
2022-11-14T14:07:42.928Z,23.33
2022-11-14T14:10:40.098Z,28.37
2022-11-14T14:13:12.562Z,37.70
2022-11-14T14:16:09.764Z,39.77
2022-11-14T14:18:55.077Z,22.77
2022-11-14T14:21:30.997Z,20.17
2022-11-14T14:24:13.931Z,22.97
2022-11-14T14:27:14.232Z,24.40
2022-11-14T14:30:01.417Z,34.83
2022-11-14T14:32:28.289Z,23.50
2022-11-14T14:34:58.460Z,21.23
2022-11-14T14:37:28.455Z,26.30
2022-11-14T14:40:22.037Z,27.73
2022-11-14T14:42:49.352Z,25.23
2022-11-14T14:45:19.687Z,26.40
2022-11-14T14:48:02.668Z,23.67
2022-11-14T14:50:49.900Z,26.77
2022-11-14T14:53:28.576Z,25.90
2022-11-14T14:55:58.466Z,21.63
2022-11-14T14:58:29.597Z,22.40
2022-11-14T15:01:09.330Z,18.97
2022-11-14T15:03:48.985Z,18.53
2022-11-14T15:06:31.533Z,22.00
2022-11-14T15:09:02.311Z,19.87
2022-11-14T15:11:32.595Z,16.67
2022-11-14T15:14:01.662Z,19.40
2022-11-14T15:16:29.787Z,22.43
2022-11-14T15:18:58.231Z,22.23
2022-11-14T15:21:29.957Z,26.70
2022-11-14T15:24:23.262Z,20.20
2022-11-14T15:26:51.174Z,16.37
2022-11-14T15:29:26.510Z,23.13
2022-11-14T15:32:01.114Z,17.13
2022-11-14T15:34:36.517Z,19.03
2022-11-14T15:37:16.399Z,18.63
2022-11-14T15:39:43.914Z,18.00
2022-11-14T15:42:17.529Z,16.63
2022-11-14T15:44:45.285Z,20.73
2022-11-14T15:47:28.885Z,21.77
2022-11-14T15:50:03.062Z,23.40
2022-11-14T15:52:40.005Z,16.53
2022-11-14T15:55:15.693Z,23.73
2022-11-14T15:57:45.391Z,18.33
2022-11-14T16:00:16.552Z,21.07
2022-11-14T16:02:55.883Z,17.87
2022-11-14T16:05:28.961Z,18.07
2022-11-14T16:07:56.714Z,15.47
2022-11-14T16:10:25.918Z,19.20
2022-11-14T16:12:53.059Z,15.87
2022-11-14T16:15:21.040Z,16.27
2022-11-14T16:17:49.728Z,17.13
2022-11-14T16:20:22.637Z,17.40
2022-11-14T16:22:50.939Z,15.27
2022-11-14T16:25:22.773Z,17.00
2022-11-14T16:27:49.637Z,17.87
2022-11-14T16:30:18.559Z,17.00
2022-11-14T16:32:47.307Z,16.47
2022-11-14T16:35:18.045Z,15.53
2022-11-14T16:37:45.078Z,18.33
2022-11-14T16:40:23.644Z,18.40
2022-11-14T16:42:50.627Z,15.20
2022-11-14T16:45:20.263Z,17.10
2022-11-14T16:47:48.448Z,18.53
2022-11-14T16:50:15.885Z,14.83
2022-11-14T16:52:42.669Z,18.33
2022-11-14T16:55:11.399Z,16.00
2022-11-14T16:57:39.209Z,15.67
2022-11-14T17:00:09.208Z,18.80
2022-11-14T17:02:36.008Z,18.27
2022-11-14T17:05:02.831Z,16.30
2022-11-14T17:07:33.324Z,17.00
2022-11-14T17:10:00.882Z,18.47
2022-11-14T17:12:28.528Z,14.73
2022-11-14T17:14:55.279Z,16.00
2022-11-14T17:17:22.198Z,17.90
2022-11-14T17:19:49.590Z,14.73
2022-11-14T17:22:18.092Z,16.10
2022-11-14T17:24:44.829Z,16.67
2022-11-14T17:27:12.969Z,15.87
2022-11-14T17:29:40.016Z,15.20
2022-11-14T17:32:06.876Z,14.40
2022-11-14T17:34:35.548Z,14.97
2022-11-14T17:37:02.186Z,13.87
2022-11-14T17:39:29.770Z,12.73
2022-11-14T17:41:56.577Z,15.10
2022-11-14T17:44:23.360Z,16.70
2022-11-14T17:46:50.290Z,12.40
2022-11-14T17:49:16.945Z,12.10
2022-11-14T17:51:43.682Z,12.57
2022-11-14T17:54:10.356Z,11.93
2022-11-14T17:56:41.177Z,12.80
2022-11-14T17:59:11.230Z,12.13
2022-11-14T18:01:38.041Z,12.17
2022-11-14T18:04:06.596Z,12.63
2022-11-14T18:06:34.401Z,12.73
2022-11-14T18:09:04.968Z,17.60
2022-11-14T18:11:32.224Z,10.33
2022-11-14T18:13:58.912Z,10.93
2022-11-14T18:16:28.627Z,9.40
2022-11-14T18:19:06.693Z,29.27
2022-11-14T18:21:33.491Z,12.70
2022-11-14T18:24:00.650Z,11.80
2022-11-14T18:26:28.806Z,11.20
2022-11-14T18:28:56.869Z,10.70
2022-11-14T18:31:24.536Z,14.30
2022-11-14T18:33:52.024Z,10.93
2022-11-14T18:36:19.395Z,10.27
2022-11-14T18:38:46.962Z,10.30
2022-11-14T18:41:16.751Z,10.67
2022-11-14T18:43:47.174Z,10.77
2022-11-14T18:46:19.647Z,15.20
2022-11-14T18:48:48.736Z,12.40
2022-11-14T18:51:21.054Z,13.67
2022-11-14T18:53:48.464Z,11.30
2022-11-14T18:56:17.480Z,12.37
2022-11-14T18:58:45.087Z,10.50
2022-11-14T19:01:24.045Z,11.40
2022-11-14T19:03:51.496Z,11.97
2022-11-14T19:06:18.487Z,13.03
2022-11-14T19:08:45.309Z,10.87
2022-11-14T19:11:33.135Z,11.10
2022-11-14T19:14:05.786Z,11.00
2022-11-14T19:16:34.211Z,11.37
2022-11-14T19:19:01.602Z,11.07
2022-11-14T19:21:28.914Z,11.00
2022-11-14T19:23:57.574Z,11.83
2022-11-14T19:26:24.499Z,12.60
2022-11-14T19:28:51.587Z,10.40
2022-11-14T19:31:19.467Z,13.80
2022-11-14T19:33:46.342Z,13.87
2022-11-14T19:36:16.823Z,12.37
2022-11-14T19:38:45.798Z,12.17
2022-11-14T19:41:20.300Z,11.20
2022-11-14T19:43:47.898Z,11.03
2022-11-14T19:46:17.060Z,11.23
2022-11-14T19:48:44.127Z,12.20
2022-11-14T19:51:19.176Z,11.20
2022-11-14T19:53:46.828Z,11.93
2022-11-14T19:56:16.686Z,12.40
2022-11-14T19:58:45.515Z,21.03
2022-11-14T20:01:17.060Z,14.93
2022-11-14T20:03:44.029Z,11.00
2022-11-14T20:06:20.039Z,11.43
2022-11-14T20:08:46.829Z,11.83
2022-11-14T20:11:13.613Z,9.63
2022-11-14T20:13:44.139Z,12.73
2022-11-14T20:16:17.159Z,10.93
2022-11-14T20:18:46.536Z,10.10
2022-11-14T20:21:14.839Z,10.80
2022-11-14T20:23:42.359Z,14.87
2022-11-14T20:26:12.586Z,9.30
2022-11-14T20:28:41.373Z,9.37
2022-11-14T20:31:16.853Z,9.63
2022-11-14T20:33:46.427Z,10.03
2022-11-14T20:36:16.492Z,12.03
2022-11-14T20:38:44.693Z,10.87
2022-11-14T20:41:12.671Z,9.83
2022-11-14T20:43:40.109Z,14.57
2022-11-14T20:46:15.751Z,10.30
2022-11-14T20:48:42.920Z,10.40
2022-11-14T20:51:12.732Z,9.23
2022-11-14T20:53:39.854Z,10.30
2022-11-14T20:56:07.573Z,9.23
2022-11-14T20:58:34.861Z,9.43
2022-11-14T21:01:01.704Z,9.93
2022-11-14T21:03:29.066Z,10.50
2022-11-14T21:05:56.693Z,12.30
2022-11-14T21:08:23.611Z,10.50
2022-11-14T21:10:57.235Z,9.83
2022-11-14T21:13:42.617Z,12.23
2022-11-14T21:16:14.713Z,11.90
2022-11-14T21:18:45.202Z,9.77
2022-11-14T21:21:16.041Z,8.23
2022-11-14T21:23:43.917Z,9.53
2022-11-14T21:26:15.843Z,9.60
2022-11-14T21:28:44.407Z,9.13
2022-11-14T21:31:26.488Z,9.57
2022-11-14T21:33:58.968Z,10.03
2022-11-14T21:36:44.482Z,9.83
2022-11-14T21:39:14.842Z,9.07
2022-11-14T21:41:42.731Z,8.90
2022-11-14T21:44:13.068Z,9.53
2022-11-14T21:46:40.936Z,9.30
2022-11-14T21:49:08.100Z,16.73
2022-11-14T21:51:34.839Z,9.20
2022-11-14T21:54:06.522Z,10.07
2022-11-14T21:56:35.292Z,9.90
2022-11-14T21:59:13.433Z,9.70
2022-11-14T22:02:04.595Z,9.30
2022-11-14T22:04:32.145Z,9.30
2022-11-14T22:07:01.210Z,9.50
2022-11-14T22:09:28.529Z,8.37
2022-11-14T22:11:55.928Z,8.87
2022-11-14T22:14:23.001Z,8.10
2022-11-14T22:16:49.717Z,8.30
2022-11-14T22:19:16.587Z,8.33
2022-11-14T22:21:43.315Z,9.50
2022-11-14T22:24:10.041Z,7.63
2022-11-14T22:26:39.845Z,8.80
2022-11-14T22:29:07.790Z,7.43
2022-11-14T22:31:34.761Z,8.37
2022-11-14T22:34:01.899Z,7.60
2022-11-14T22:36:29.161Z,8.37
2022-11-14T22:38:56.802Z,6.20
2022-11-14T22:41:32.213Z,8.47
2022-11-14T22:44:00.446Z,6.13
2022-11-14T22:46:27.658Z,9.77
2022-11-14T22:48:54.911Z,7.43
2022-11-14T22:51:26.329Z,7.30
2022-11-14T22:53:54.940Z,7.13
2022-11-14T22:56:25.331Z,8.93
2022-11-14T22:58:52.286Z,7.80
2022-11-14T23:01:20.976Z,7.57
2022-11-14T23:03:48.711Z,19.37
2022-11-14T23:06:17.719Z,8.53
2022-11-14T23:08:44.940Z,6.83
2022-11-14T23:11:18.530Z,8.60
2022-11-14T23:13:47.989Z,8.67
2022-11-14T23:16:22.849Z,8.27
2022-11-14T23:18:50.783Z,8.23
2022-11-14T23:21:32.193Z,7.00
2022-11-14T23:24:04.513Z,7.50
2022-11-14T23:26:31.577Z,7.80
2022-11-14T23:28:58.483Z,7.60
2022-11-14T23:31:25.832Z,8.10
2022-11-14T23:33:54.471Z,6.80
2022-11-14T23:36:21.668Z,7.43
2022-11-14T23:38:48.330Z,7.77
2022-11-14T23:41:27.584Z,7.23
2022-11-14T23:43:54.319Z,7.50
2022-11-14T23:46:21.205Z,7.70
2022-11-14T23:48:48.124Z,7.63
2022-11-14T23:51:14.795Z,7.50
2022-11-14T23:53:41.902Z,7.87
2022-11-14T23:56:12.366Z,8.20
2022-11-14T23:58:39.295Z,7.17
